createdAt,value
2022-10-13T00:01:18.302Z,83.40
2022-10-13T00:03:47.198Z,83.90
2022-10-13T00:06:24.550Z,83.30
2022-10-13T00:08:52.567Z,84.20
2022-10-13T00:11:23.624Z,84.70
2022-10-13T00:13:52.586Z,83.40
2022-10-13T00:16:21.332Z,83.80
2022-10-13T00:18:49.344Z,84.80
2022-10-13T00:21:20.090Z,83.80
2022-10-13T00:23:50.126Z,83.90
2022-10-13T00:26:21.969Z,85.00
2022-10-13T00:28:52.482Z,84.40
2022-10-13T00:31:29.272Z,85.00
2022-10-13T00:33:58.769Z,84.80
2022-10-13T00:36:26.339Z,83.80
2022-10-13T00:38:54.435Z,84.50
2022-10-13T00:41:22.189Z,84.20
2022-10-13T00:43:49.524Z,84.30
2022-10-13T00:46:17.278Z,85.40
2022-10-13T00:48:47.003Z,84.90
2022-10-13T00:51:18.098Z,84.20
2022-10-13T00:53:47.293Z,84.20
2022-10-13T00:56:18.634Z,84.50
2022-10-13T00:58:48.284Z,85.30
2022-10-13T01:01:16.472Z,84.90
2022-10-13T01:03:44.068Z,85.80
2022-10-13T01:06:12.747Z,84.50
2022-10-13T01:08:40.173Z,84.10
2022-10-13T01:11:23.581Z,84.30
2022-10-13T01:14:02.848Z,86.00
2022-10-13T01:16:48.702Z,83.90
2022-10-13T01:19:24.865Z,83.90
2022-10-13T01:22:00.749Z,84.40
2022-10-13T01:24:51.757Z,86.30
2022-10-13T01:27:32.117Z,84.60
2022-10-13T01:30:17.858Z,84.40
2022-10-13T01:32:59.543Z,84.00
2022-10-13T01:35:39.031Z,84.50
2022-10-13T01:38:16.353Z,85.10
2022-10-13T01:41:00.840Z,85.00
2022-10-13T01:43:39.227Z,85.00
2022-10-13T01:46:15.185Z,85.60
2022-10-13T01:48:45.271Z,84.70
2022-10-13T01:51:19.264Z,84.60
2022-10-13T01:53:48.324Z,85.50
2022-10-13T01:56:15.806Z,84.10
2022-10-13T01:58:45.756Z,84.30
2022-10-13T02:01:19.169Z,84.00
2022-10-13T02:04:25.959Z,86.20
2022-10-13T02:07:14.782Z,84.40
2022-10-13T02:10:00.699Z,84.10
2022-10-13T02:12:32.563Z,84.30
2022-10-13T02:15:01.253Z,84.40
2022-10-13T02:17:29.215Z,85.00
2022-10-13T02:19:57.379Z,84.30
2022-10-13T02:22:38.338Z,84.30
2022-10-13T02:25:06.542Z,85.10
2022-10-13T02:27:33.931Z,84.50
2022-10-13T02:30:01.295Z,85.00
2022-10-13T02:32:30.145Z,84.60
2022-10-13T02:34:57.791Z,84.60
2022-10-13T02:37:25.840Z,85.20
2022-10-13T02:39:53.211Z,84.60
2022-10-13T02:42:20.935Z,85.80
2022-10-13T02:44:48.545Z,85.00
2022-10-13T02:47:15.835Z,84.90
2022-10-13T02:49:43.201Z,86.50
2022-10-13T02:52:10.584Z,85.30
2022-10-13T02:54:42.836Z,84.90
2022-10-13T02:57:10.207Z,85.20
2022-10-13T02:59:37.514Z,85.60
2022-10-13T03:02:04.917Z,87.30
2022-10-13T03:04:32.431Z,87.70
2022-10-13T03:07:03.037Z,88.10
2022-10-13T03:09:30.633Z,89.60
2022-10-13T03:12:01.009Z,89.50
2022-10-13T03:14:28.427Z,85.90
2022-10-13T03:16:55.917Z,87.80
2022-10-13T03:19:23.517Z,88.00
2022-10-13T03:21:51.000Z,88.80
2022-10-13T03:24:18.434Z,87.40
2022-10-13T03:26:45.895Z,88.90
2022-10-13T03:29:16.294Z,88.70
2022-10-13T03:31:44.023Z,86.90
2022-10-13T03:34:12.797Z,86.30
2022-10-13T03:36:40.182Z,86.40
2022-10-13T03:39:07.701Z,88.30
2022-10-13T03:41:35.032Z,90.30
2022-10-13T03:44:02.472Z,88.30
2022-10-13T03:46:31.725Z,89.80
2022-10-13T03:48:59.609Z,88.40
2022-10-13T03:51:29.846Z,87.70
2022-10-13T03:53:57.553Z,90.40
2022-10-13T03:56:26.710Z,89.20
2022-10-13T03:58:58.673Z,87.20
2022-10-13T04:01:29.909Z,86.70
2022-10-13T04:03:58.911Z,86.40
2022-10-13T04:06:26.904Z,85.70
2022-10-13T04:08:54.775Z,88.00
2022-10-13T04:11:22.639Z,88.40
2022-10-13T04:13:59.050Z,87.30
2022-10-13T04:16:30.362Z,87.90
2022-10-13T04:19:04.476Z,86.90
2022-10-13T04:21:34.412Z,85.80
2022-10-13T04:24:03.151Z,86.40
2022-10-13T04:26:33.231Z,86.40
2022-10-13T04:29:08.874Z,86.40
2022-10-13T04:31:37.188Z,86.40
2022-10-13T04:34:07.847Z,86.90
2022-10-13T04:36:35.689Z,88.50
2022-10-13T04:39:03.881Z,88.80
2022-10-13T04:41:33.718Z,86.20
2022-10-13T04:44:02.673Z,88.40
2022-10-13T04:46:30.764Z,87.10
2022-10-13T04:48:59.360Z,88.50
2022-10-13T04:51:32.854Z,88.00
2022-10-13T04:54:01.451Z,88.50
2022-10-13T04:56:29.103Z,87.90
2022-10-13T04:59:02.476Z,87.90
2022-10-13T05:01:29.943Z,86.50
2022-10-13T05:04:00.184Z,86.90
2022-10-13T05:06:30.790Z,87.20
2022-10-13T05:08:58.311Z,87.20
2022-10-13T05:11:27.236Z,88.60
2022-10-13T05:13:55.099Z,88.50
2022-10-13T05:16:25.605Z,87.70
2022-10-13T05:18:54.668Z,88.70
2022-10-13T05:21:27.237Z,87.80
2022-10-13T05:23:56.148Z,86.90
2022-10-13T05:26:28.976Z,87.70
2022-10-13T05:28:57.294Z,87.50
2022-10-13T05:31:28.004Z,87.50
2022-10-13T05:33:57.306Z,87.00
2022-10-13T05:36:27.487Z,87.00
2022-10-13T05:38:56.825Z,87.30
2022-10-13T05:41:26.887Z,87.50
2022-10-13T05:43:57.758Z,87.80
2022-10-13T05:46:26.055Z,87.10
2022-10-13T05:48:53.999Z,87.70
2022-10-13T05:51:25.768Z,87.30
2022-10-13T05:54:00.167Z,88.20
2022-10-13T05:56:32.176Z,88.80
2022-10-13T05:59:02.777Z,87.50
2022-10-13T06:01:34.199Z,88.90
2022-10-13T06:04:06.061Z,88.10
2022-10-13T06:06:33.881Z,87.90
2022-10-13T06:09:01.652Z,87.80
2022-10-13T06:11:29.058Z,89.20
2022-10-13T06:13:56.456Z,89.70
2022-10-13T06:16:23.772Z,89.50
2022-10-13T06:18:51.167Z,88.90
2022-10-13T06:21:18.570Z,90.00
2022-10-13T06:23:46.036Z,89.30
2022-10-13T06:26:13.514Z,90.30
2022-10-13T06:28:41.000Z,90.30
2022-10-13T06:31:08.461Z,88.90
2022-10-13T06:33:35.855Z,91.80
2022-10-13T06:36:06.869Z,90.00
2022-10-13T06:38:34.464Z,88.60
2022-10-13T06:41:03.040Z,90.30
2022-10-13T06:43:39.654Z,88.10
2022-10-13T06:46:11.829Z,88.80
2022-10-13T06:48:39.783Z,89.70
2022-10-13T06:51:11.573Z,90.70
2022-10-13T06:53:38.985Z,89.00
2022-10-13T06:56:07.683Z,89.80
2022-10-13T06:58:36.442Z,89.40
2022-10-13T07:01:05.536Z,88.50
2022-10-13T07:03:33.270Z,88.70
2022-10-13T07:06:02.751Z,90.10
2022-10-13T07:08:31.154Z,88.80
2022-10-13T07:10:58.844Z,89.70
2022-10-13T07:13:26.322Z,90.70
2022-10-13T07:15:53.663Z,90.30
2022-10-13T07:18:21.068Z,90.60
2022-10-13T07:20:48.494Z,90.20
2022-10-13T07:23:15.813Z,90.70
2022-10-13T07:25:43.233Z,90.10
2022-10-13T07:28:10.642Z,90.00
2022-10-13T07:30:39.618Z,90.10
2022-10-13T07:33:07.378Z,89.90
2022-10-13T07:35:38.578Z,90.00
2022-10-13T07:38:07.126Z,89.60
2022-10-13T07:40:35.146Z,90.40
2022-10-13T07:43:02.810Z,89.80
2022-10-13T07:45:30.347Z,90.00
2022-10-13T07:47:57.768Z,90.70
2022-10-13T07:50:25.205Z,90.60
2022-10-13T07:52:52.685Z,90.60
2022-10-13T07:55:20.032Z,91.20
2022-10-13T07:57:47.419Z,90.60
2022-10-13T08:00:15.100Z,90.80
2022-10-13T08:02:42.559Z,90.40
2022-10-13T08:05:09.961Z,91.00
2022-10-13T08:07:39.253Z,90.70
2022-10-13T08:10:07.392Z,90.30
2022-10-13T08:12:38.228Z,89.70
2022-10-13T08:15:07.271Z,91.10
2022-10-13T08:17:34.722Z,88.40
2022-10-13T08:20:02.180Z,90.90
2022-10-13T08:22:29.595Z,90.00
2022-10-13T08:24:57.067Z,91.20
2022-10-13T08:27:37.067Z,90.80
2022-10-13T08:30:13.840Z,90.70
2022-10-13T08:32:41.576Z,89.80
2022-10-13T08:35:10.494Z,89.60
2022-10-13T08:37:37.913Z,90.10
2022-10-13T08:40:05.777Z,90.30
2022-10-13T08:42:33.301Z,89.80
2022-10-13T08:48:03.508Z,89.60
2022-10-13T08:50:35.790Z,89.00
2022-10-13T08:53:07.098Z,89.60
2022-10-13T08:55:44.463Z,89.00
2022-10-13T08:58:21.695Z,88.70
2022-10-13T09:00:57.656Z,89.40
2022-10-13T09:03:28.297Z,88.70
2022-10-13T09:06:11.445Z,88.70
2022-10-13T09:08:48.684Z,88.60
2022-10-13T09:11:16.111Z,88.50
2022-10-13T09:13:43.517Z,89.40
2022-10-13T09:16:11.021Z,90.20
2022-10-13T09:18:39.113Z,90.00
2022-10-13T09:21:24.625Z,89.90
2022-10-13T09:23:54.177Z,88.60
2022-10-13T09:26:24.736Z,88.80
2022-10-13T09:28:53.296Z,89.00
2022-10-13T09:31:26.509Z,90.10
2022-10-13T09:34:01.656Z,89.60
2022-10-13T09:36:31.344Z,89.00
2022-10-13T09:39:16.048Z,88.50
2022-10-13T09:41:45.134Z,88.70
2022-10-13T09:44:14.459Z,89.20
2022-10-13T09:46:55.324Z,88.00
2022-10-13T09:49:26.774Z,87.80
2022-10-13T09:52:04.275Z,87.40
2022-10-13T09:54:45.668Z,88.00
2022-10-13T09:57:19.511Z,87.20
2022-10-13T09:59:51.085Z,88.00
2022-10-13T10:02:26.582Z,87.20
2022-10-13T10:05:00.135Z,86.80
2022-10-13T10:07:32.164Z,86.60
2022-10-13T10:10:27.319Z,88.30
2022-10-13T10:12:54.937Z,86.90
2022-10-13T10:15:30.203Z,88.20
2022-10-13T10:18:09.416Z,87.00
2022-10-13T10:20:49.484Z,87.10
2022-10-13T10:23:35.362Z,86.50
2022-10-13T10:26:10.997Z,86.50
2022-10-13T10:28:38.586Z,86.60
2022-10-13T10:31:36.710Z,88.00
2022-10-13T10:34:20.381Z,85.90
2022-10-13T10:37:00.323Z,85.40
2022-10-13T10:39:28.787Z,87.10
2022-10-13T10:42:00.898Z,86.80
2022-10-13T10:44:33.011Z,85.30
2022-10-13T10:47:06.784Z,84.80
2022-10-13T10:49:38.154Z,84.90
2022-10-13T10:52:16.957Z,85.10
2022-10-13T10:55:08.096Z,85.20
2022-10-13T10:58:14.136Z,85.10
2022-10-13T11:01:20.039Z,84.70
2022-10-13T11:03:54.640Z,84.80
2022-10-13T11:06:26.226Z,85.20
2022-10-13T11:08:55.368Z,84.60
2022-10-13T11:11:25.169Z,86.00
2022-10-13T11:14:01.603Z,85.90
2022-10-13T11:16:37.993Z,84.20
2022-10-13T11:19:37.333Z,84.10
2022-10-13T11:22:05.302Z,83.50
2022-10-13T11:24:34.047Z,83.90
2022-10-13T11:27:16.974Z,83.90
2022-10-13T11:29:44.454Z,83.80
2022-10-13T11:32:41.696Z,84.00
2022-10-13T11:35:21.180Z,83.60
2022-10-13T11:38:17.634Z,83.20
2022-10-13T11:41:12.964Z,84.10
2022-10-13T11:43:58.926Z,83.70
2022-10-13T11:46:57.903Z,83.40
2022-10-13T11:49:59.043Z,83.70
2022-10-13T11:52:54.505Z,84.00
2022-10-13T11:55:39.678Z,83.80
2022-10-13T11:58:14.628Z,83.50
2022-10-13T12:00:57.080Z,83.80
2022-10-13T12:03:30.574Z,83.70
2022-10-13T12:06:07.743Z,83.70
2022-10-13T12:08:36.717Z,83.50
2022-10-13T12:11:07.725Z,83.40
2022-10-13T12:13:36.396Z,83.20
2022-10-13T12:16:06.667Z,85.00
2022-10-13T12:18:38.513Z,83.40
2022-10-13T12:21:17.866Z,83.60
2022-10-13T12:23:45.603Z,83.20
2022-10-13T12:26:18.839Z,84.40
2022-10-13T12:28:50.312Z,84.00
2022-10-13T12:31:20.961Z,83.40
2022-10-13T12:34:00.886Z,82.50
2022-10-13T12:36:34.557Z,83.30
2022-10-13T12:39:05.733Z,82.80
2022-10-13T12:41:36.500Z,83.10
2022-10-13T12:44:06.753Z,83.50
2022-10-13T12:46:40.721Z,83.80
2022-10-13T12:49:17.603Z,83.60
2022-10-13T12:51:48.853Z,82.70
2022-10-13T12:54:23.472Z,83.00
2022-10-13T12:56:56.326Z,82.20
2022-10-13T12:59:26.061Z,83.00
2022-10-13T13:02:02.702Z,82.60
2022-10-13T13:04:40.457Z,82.50
2022-10-13T13:07:28.389Z,83.00
2022-10-13T13:10:07.911Z,82.90
2022-10-13T13:12:36.822Z,83.90
2022-10-13T13:15:33.442Z,83.40
2022-10-13T13:18:36.772Z,82.80
2022-10-13T13:21:15.060Z,82.60
2022-10-13T13:23:50.976Z,82.20
2022-10-13T13:26:23.535Z,82.60
2022-10-13T13:28:55.294Z,82.50
2022-10-13T13:31:25.425Z,82.30
2022-10-13T13:33:53.427Z,82.80
2022-10-13T13:36:23.106Z,82.60
2022-10-13T13:38:54.322Z,82.20
2022-10-13T13:41:27.711Z,81.30
2022-10-13T13:43:55.132Z,82.90
2022-10-13T13:46:27.771Z,83.40
2022-10-13T13:48:55.221Z,85.10
2022-10-13T13:51:23.110Z,85.60
2022-10-13T13:53:50.692Z,83.20
2022-10-13T13:56:19.822Z,86.50
2022-10-13T13:58:47.616Z,82.10
2022-10-13T14:01:15.906Z,84.00
2022-10-13T14:03:44.011Z,82.60
2022-10-13T14:06:20.705Z,85.10
2022-10-13T14:08:48.809Z,83.00
2022-10-13T14:11:17.668Z,83.20
2022-10-13T14:13:45.192Z,84.10
2022-10-13T14:16:17.384Z,84.10
2022-10-13T14:18:44.935Z,83.00
2022-10-13T14:21:12.650Z,84.00
2022-10-13T14:23:45.616Z,85.30
2022-10-13T14:26:14.149Z,85.00
2022-10-13T14:28:43.203Z,82.80
2022-10-13T14:31:11.691Z,84.60
2022-10-13T14:33:43.111Z,82.70
2022-10-13T14:36:10.888Z,84.30
2022-10-13T14:38:38.411Z,83.10
2022-10-13T14:41:06.592Z,84.40
2022-10-13T14:43:34.200Z,83.00
2022-10-13T14:46:06.342Z,85.80
2022-10-13T14:48:35.298Z,83.10
2022-10-13T14:51:06.667Z,84.20
2022-10-13T14:53:39.631Z,84.80
2022-10-13T14:56:24.908Z,83.10
2022-10-13T14:58:54.128Z,82.90
2022-10-13T15:01:24.138Z,82.90
2022-10-13T15:03:52.160Z,86.30
2022-10-13T15:06:24.972Z,85.40
2022-10-13T15:08:53.103Z,83.10
2022-10-13T15:11:24.910Z,82.90
2022-10-13T15:13:53.192Z,84.20
2022-10-13T15:16:26.420Z,84.50
2022-10-13T15:18:55.179Z,83.20
2022-10-13T15:21:23.481Z,83.50
2022-10-13T15:23:51.141Z,83.20
2022-10-13T15:26:19.874Z,85.90
2022-10-13T15:28:49.781Z,83.50
2022-10-13T15:31:18.961Z,83.20
2022-10-13T15:33:48.686Z,83.90
2022-10-13T15:36:16.215Z,84.20
2022-10-13T15:38:43.739Z,85.90
2022-10-13T15:41:11.640Z,84.90
2022-10-13T15:43:39.644Z,86.50
2022-10-13T15:46:11.539Z,86.40
2022-10-13T15:48:39.787Z,83.60
2022-10-13T15:51:15.262Z,86.80
2022-10-13T15:53:42.753Z,84.10
2022-10-13T15:56:10.411Z,84.80
2022-10-13T15:58:37.934Z,86.00
2022-10-13T16:01:12.994Z,85.30
2022-10-13T16:03:41.401Z,84.60
2022-10-13T16:06:11.228Z,83.60
2022-10-13T16:08:40.035Z,84.00
2022-10-13T16:11:12.956Z,84.00
2022-10-13T16:13:40.913Z,84.50
2022-10-13T16:16:08.573Z,87.00
2022-10-13T16:18:37.916Z,85.60
2022-10-13T16:21:18.230Z,84.80
2022-10-13T16:23:47.403Z,84.80
2022-10-13T16:26:15.858Z,84.30
2022-10-13T16:28:45.732Z,84.20
2022-10-13T16:31:15.959Z,87.00
2022-10-13T16:33:45.038Z,84.20
2022-10-13T16:36:16.274Z,84.90
2022-10-13T16:38:44.727Z,84.70
2022-10-13T16:41:14.721Z,84.90
2022-10-13T16:43:43.861Z,84.30
2022-10-13T16:46:15.967Z,85.00
2022-10-13T16:48:45.023Z,84.40
2022-10-13T16:51:19.542Z,84.70
2022-10-13T16:53:47.649Z,83.60
2022-10-13T16:56:15.019Z,84.20
2022-10-13T16:58:46.067Z,87.10
2022-10-13T17:01:13.692Z,84.50
2022-10-13T17:03:44.325Z,86.20
2022-10-13T17:06:13.978Z,85.30
2022-10-13T17:08:43.109Z,84.30
2022-10-13T17:11:15.997Z,84.30
2022-10-13T17:13:43.428Z,84.50
2022-10-13T17:16:10.975Z,85.70
2022-10-13T17:18:38.487Z,86.10
2022-10-13T17:21:10.329Z,86.00
2022-10-13T17:23:37.889Z,84.70
2022-10-13T17:26:07.965Z,86.90
2022-10-13T17:28:36.773Z,84.50
2022-10-13T17:31:11.069Z,84.60
2022-10-13T17:33:40.300Z,84.40
2022-10-13T17:36:17.555Z,85.70
2022-10-13T17:38:45.579Z,84.90
2022-10-13T17:41:13.462Z,84.70
2022-10-13T17:43:48.878Z,86.10
2022-10-13T17:46:36.283Z,85.70
2022-10-13T17:49:05.492Z,84.80
2022-10-13T17:51:32.975Z,85.70
2022-10-13T17:54:00.994Z,87.90
2022-10-13T17:56:29.139Z,87.10
2022-10-13T17:58:57.029Z,84.80
2022-10-13T18:01:37.389Z,87.40
2022-10-13T18:04:13.099Z,87.50
2022-10-13T18:06:44.234Z,85.30
2022-10-13T18:09:13.128Z,85.80
2022-10-13T18:11:44.397Z,84.50
2022-10-13T18:14:16.349Z,84.70
2022-10-13T18:20:15.220Z,88.20
2022-10-13T18:22:42.709Z,84.80
2022-10-13T18:25:10.320Z,86.30
2022-10-13T18:27:37.818Z,87.20
2022-10-13T18:30:05.800Z,87.10
2022-10-13T18:32:34.500Z,86.50
2022-10-13T18:35:01.996Z,87.90
2022-10-13T18:37:29.820Z,88.00
2022-10-13T18:39:57.168Z,84.80
2022-10-13T18:42:24.542Z,85.30
2022-10-13T18:44:51.858Z,85.40
2022-10-13T18:47:19.492Z,85.30
2022-10-13T18:49:47.392Z,84.90
2022-10-13T18:52:14.723Z,85.30
2022-10-13T18:54:42.160Z,85.30
2022-10-13T18:57:09.484Z,85.90
2022-10-13T18:59:38.700Z,85.30
2022-10-13T19:02:06.641Z,85.30
2022-10-13T19:04:35.875Z,84.70
2022-10-13T19:07:03.698Z,84.80
2022-10-13T19:09:31.002Z,84.90
2022-10-13T19:11:58.393Z,84.60
2022-10-13T19:14:27.241Z,84.60
2022-10-13T19:16:58.236Z,84.50
2022-10-13T19:19:30.213Z,84.70
2022-10-13T19:21:58.114Z,84.70
2022-10-13T19:24:25.357Z,84.70
2022-10-13T19:26:52.673Z,84.60
2022-10-13T19:29:19.958Z,84.60
2022-10-13T19:31:47.302Z,84.50
2022-10-13T19:34:14.669Z,84.60
2022-10-13T19:36:46.677Z,84.60
2022-10-13T19:39:22.936Z,84.70
2022-10-13T19:41:52.642Z,84.70
2022-10-13T19:44:21.344Z,85.10
2022-10-13T19:46:49.253Z,85.00
2022-10-13T19:49:20.605Z,85.10
2022-10-13T19:51:49.249Z,84.60
2022-10-13T19:54:17.679Z,84.60
2022-10-13T19:56:47.564Z,85.10
2022-10-13T19:59:15.898Z,84.50
2022-10-13T20:01:43.735Z,84.40
2022-10-13T20:04:15.947Z,84.50
2022-10-13T20:06:49.990Z,84.80
2022-10-13T20:09:18.814Z,84.50
2022-10-13T20:11:48.514Z,84.70
2022-10-13T20:14:16.845Z,85.10
2022-10-13T20:16:44.454Z,84.70
2022-10-13T20:19:14.186Z,84.60
2022-10-13T20:21:42.745Z,84.80
2022-10-13T20:24:12.450Z,85.00
2022-10-13T20:26:42.375Z,84.70
2022-10-13T20:29:09.779Z,84.50
2022-10-13T20:31:37.242Z,85.20
2022-10-13T20:34:04.652Z,84.90
2022-10-13T20:36:37.540Z,85.40
2022-10-13T20:39:06.043Z,84.80
2022-10-13T20:41:33.909Z,84.70
2022-10-13T20:44:01.678Z,84.60
2022-10-13T20:46:31.260Z,84.60
2022-10-13T20:49:10.587Z,85.00
2022-10-13T20:51:39.536Z,84.80
2022-10-13T20:54:07.641Z,85.60
2022-10-13T20:56:35.685Z,84.70
2022-10-13T20:59:08.974Z,85.20
2022-10-13T21:01:37.103Z,85.60
2022-10-13T21:04:05.239Z,85.20
2022-10-13T21:06:33.405Z,85.00
2022-10-13T21:09:00.828Z,85.20
2022-10-13T21:11:28.139Z,85.10
2022-10-13T21:13:55.527Z,85.10
2022-10-13T21:16:28.091Z,85.60
2022-10-13T21:18:57.000Z,85.80
2022-10-13T21:21:26.701Z,85.30
2022-10-13T21:23:56.368Z,85.40
2022-10-13T21:26:25.873Z,85.60
2022-10-13T21:28:53.435Z,85.50
2022-10-13T21:31:23.007Z,85.30
2022-10-13T21:33:50.889Z,85.80
2022-10-13T21:36:24.059Z,85.80
2022-10-13T21:38:53.991Z,85.60
2022-10-13T21:41:21.878Z,86.00
2022-10-13T21:43:50.199Z,85.40
2022-10-13T21:46:29.620Z,85.50
2022-10-13T21:48:59.431Z,86.90
2022-10-13T21:51:30.368Z,85.80
2022-10-13T21:54:00.209Z,86.70
2022-10-13T21:56:31.529Z,86.10
2022-10-13T21:58:59.987Z,86.10
2022-10-13T22:01:27.431Z,85.40
2022-10-13T22:04:00.001Z,85.80
2022-10-13T22:06:28.989Z,86.50
2022-10-13T22:08:57.853Z,86.10
2022-10-13T22:11:28.099Z,86.20
2022-10-13T22:13:59.249Z,86.30
2022-10-13T22:16:29.349Z,87.50
2022-10-13T22:18:57.714Z,86.60
2022-10-13T22:21:29.037Z,87.40
2022-10-13T22:24:02.503Z,87.00
2022-10-13T22:26:32.199Z,88.10
2022-10-13T22:29:01.461Z,87.30
2022-10-13T22:31:30.547Z,87.30
2022-10-13T22:33:58.609Z,86.90
2022-10-13T22:36:26.592Z,87.70
2022-10-13T22:38:59.282Z,86.90
2022-10-13T22:41:26.727Z,87.60
2022-10-13T22:43:56.007Z,87.00
2022-10-13T22:46:26.346Z,87.10
2022-10-13T22:48:53.877Z,87.50
2022-10-13T22:51:23.462Z,87.60
2022-10-13T22:53:51.472Z,87.60
2022-10-13T22:56:27.669Z,88.10
2022-10-13T22:59:00.547Z,87.30
2022-10-13T23:01:28.458Z,87.50
2022-10-13T23:03:57.568Z,87.60
2022-10-13T23:06:27.763Z,87.90
2022-10-13T23:08:55.861Z,88.10
2022-10-13T23:11:23.383Z,88.30
2022-10-13T23:13:50.729Z,87.90
2022-10-13T23:16:20.729Z,87.90
2022-10-13T23:18:48.314Z,88.10
2022-10-13T23:21:27.289Z,87.60
2022-10-13T23:23:56.362Z,88.30
2022-10-13T23:26:24.003Z,88.00
2022-10-13T23:28:51.837Z,87.60
2022-10-13T23:31:19.243Z,87.80
2022-10-13T23:33:46.615Z,87.80
2022-10-13T23:36:19.985Z,86.50
2022-10-13T23:38:58.439Z,88.80
2022-10-13T23:41:26.695Z,88.30
2022-10-13T23:43:54.002Z,88.00
2022-10-13T23:46:21.341Z,87.90
2022-10-13T23:48:48.645Z,88.00
2022-10-13T23:51:22.057Z,87.90
2022-10-13T23:53:49.904Z,88.90
2022-10-13T23:56:18.475Z,88.10
2022-10-13T23:58:46.063Z,88.30
